Latest Weather Observations for Pallamana

IDS60801

Issued at 11:31 pm CDT Monday 17 December 2018 (issued every 10 minutes, with the page automatically refreshed every 10 minutes)

About weather observations | Map of weather stations | Latest weather observations for SA | Other Formats
Station Details ID: 024584 Name: PALLAMANA AERODROME Lat: -35.06 Lon: 139.23 Height: 45.0 m
Data from the previous 72 hours. | See also: Recent months at Pallamana
Date/Time
CDT
Temp
°C
App
Temp
°C
Dew
Point
°C
Rel
Hum
%
Delta-T
°C
Wind Press
QNH
hPa
Press
MSL
hPa
Rain since
9am
mm
Dir  Spd
km/h
Gust
km/h
Spd
kts
Gust
kts
17/11:30pm 16.7 16.5 14.8 88 1.1 WNW 9 11 5 6 1012.8 1012.6 0.0
17/11:00pm 16.9 16.4 14.8 87 1.2 WNW 11 15 6 8 1013.0 1012.8 0.0
17/10:30pm 16.9 16.4 14.8 87 1.2 W 11 15 6 8 1013.4 1013.2 0.0
17/10:00pm 17.1 16.6 14.9 87 1.3 SW 11 13 6 7 1013.6 1013.4 0.0
17/09:30pm 17.3 16.4 14.9 86 1.4 WSW 13 15 7 8 1013.8 1013.6 0.0
17/09:00pm 17.7 16.4 14.8 83 1.7 SW 15 19 8 10 1013.8 1013.6 0.0
17/08:30pm 18.4 16.1 14.6 78 2.2 SSW 20 26 11 14 1013.7 1013.5 0.0
17/08:00pm 19.0 16.6 14.3 74 2.7 SSW 20 28 11 15 1013.6 1013.4 0.0
17/07:30pm 19.4 15.8 14.2 72 3.0 SSW 26 33 14 18 1013.5 1013.3 0.0
17/07:00pm 19.6 15.8 13.5 68 3.5 SSW 26 33 14 18 1013.2 1013.0 0.0
17/06:30pm 21.3 17.7 14.1 63 4.2 SSW 26 35 14 19 1012.8 1012.6 0.0
17/06:00pm 21.6 17.6 14.2 62 4.3 SSW 28 37 15 20 1012.5 1012.3 0.0
17/05:30pm 22.8 19.7 14.5 59 4.9 SSW 24 35 13 19 1012.2 1012.0 0.0
17/05:00pm 23.7 19.8 14.4 56 5.5 SSW 28 35 15 19 1012.7 1012.5 0.0
17/04:30pm 23.4 19.9 14.4 57 5.3 SSE 26 32 14 17 1012.9 1012.7 0.0
17/04:00pm 23.4 20.3 14.4 57 5.3 S 24 32 13 17 1012.8 1012.6 0.0
17/03:30pm 24.5 22.7 14.4 53 6.0 S 17 32 9 17 1013.0 1012.8 0.0
17/03:00pm 22.9 20.7 14.4 58 5.0 SW 19 26 10 14 1013.5 1013.3 0.0
17/02:30pm 22.4 20.3 14.8 62 4.5 SSW 19 30 10 16 1013.8 1013.6 0.0
17/02:00pm 21.9 19.3 14.8 64 4.2 SW 22 30 12 16 1014.1 1013.9 0.0
17/01:30pm 22.1 21.6 15.0 64 4.2 S 11 19 6 10 1014.1 1013.9 0.0
17/01:00pm 20.7 20.7 15.3 71 3.2 SSW 9 15 5 8 1014.2 1014.0 0.0
17/12:30pm 20.4 19.7 15.3 72 3.0 SSW 13 20 7 11 1014.3 1014.1 0.0
17/12:00pm 19.7 19.0 15.5 77 2.5 SSW 13 19 7 10 1014.2 1014.0 0.0
17/11:30am 19.7 20.0 15.1 75 2.7 ESE 7 11 4 6 1014.3 1014.1 0.0
17/11:00am 19.1 18.9 14.8 76 2.5 SSE 9 13 5 7 1014.3 1014.1 0.0
17/10:48am 19.1 18.9 14.8 76 2.5 SE 9 13 5 7 1014.2 1014.0 0.0
17/10:30am 18.8 17.9 14.9 78 2.3 S 13 17 7 9 1014.1 1013.9 0.0
17/10:00am 18.4 17.6 15.0 80 2.0 S 13 19 7 10 1013.7 1013.5 0.0
17/09:36am 18.5 17.5 14.7 78 2.2 S 13 20 7 11 1013.8 1013.6 0.0
17/09:30am 18.5 17.5 14.7 78 2.2 SSE 13 20 7 11 1013.7 1013.5 0.0
17/09:00am 18.2 17.2 15.5 84 1.6 S 15 17 8 9 1013.5 1013.3 0.0
17/08:48am 17.8 17.5 15.4 86 1.4 S 11 17 6 9 1013.5 1013.3 0.0
17/08:30am 17.3 17.5 15.8 91 0.9 S 9 15 5 8 1013.2 1013.0 0.0
17/08:18am 17.2 16.9 15.5 90 1.0 S 11 15 6 8 1013.0 1012.8 0.0
17/08:07am 17.4 16.7 15.3 87 1.2 S 13 17 7 9 1013.0 1012.8 0.0
17/08:00am 17.2 16.4 15.0 87 1.3 SSW 13 19 7 10 1013.0 1012.8 0.0
17/07:31am 17.1 16.9 15.7 91 0.8 S 11 13 6 7 1012.5 1012.3 0.0
17/07:30am 17.1 16.9 15.6 91 0.9 S 11 13 6 7 1012.5 1012.3 0.0
17/07:29am 17.0 16.8 15.6 91 0.8 S 11 15 6 8 1012.5 1012.3 0.0
17/07:22am 17.0 16.4 15.6 91 0.8 SSW 13 17 7 9 1012.5 1012.3 0.0
17/07:07am 16.7 16.4 15.5 93 0.7 SSW 11 13 6 7 1012.4 1012.2 0.0
17/07:00am 16.7 16.0 15.5 93 0.7 SW 13 17 7 9 1012.4 1012.2 0.0
17/06:30am 16.3 15.2 15.3 94 0.6 SSW 15 22 8 12 1012.0 1011.8 0.0
17/06:00am 16.2 14.7 15.2 94 0.6 SSW 17 20 9 11 1011.8 1011.6 0.0
17/05:35am 16.0 14.4 15.1 94 0.5 SW 17 20 9 11 1011.8 1011.6 0.0
17/05:30am 16.0 14.4 15.1 94 0.5 SW 17 20 9 11 1011.8 1011.6 0.0
17/05:00am 15.9 14.6 14.9 94 0.6 SW 15 19 8 10 1011.6 1011.4 0.0
17/04:38am 15.8 14.5 14.8 94 0.6 SW 15 19 8 10 1011.7 1011.5 0.0
17/04:30am 15.8 14.8 14.6 93 0.7 WSW 13 19 7 10 1011.6 1011.4 0.0
17/04:00am 15.9 14.2 14.7 93 0.7 SW 17 20 9 11 1011.7 1011.5 0.0
17/03:30am 16.0 13.8 14.8 93 0.7 SW 20 28 11 15 1011.5 1011.3 0.0
17/03:23am 16.2 14.2 15.0 93 0.7 SW 19 22 10 12 1011.5 1011.3 0.0
17/03:06am 16.3 13.7 14.9 91 0.8 SW 22 26 12 14 1011.4 1011.2 0.0
17/03:00am 16.2 13.6 15.0 93 0.7 SW 22 28 12 15 1011.3 1011.1 0.0
17/02:30am 16.6 14.4 15.0 90 0.9 SSW 20 28 11 15 1010.8 1010.7 0.0
17/02:00am 16.8 14.3 15.1 90 1.0 SW 22 28 12 15 1011.1 1011.0 0.0
17/01:30am 17.0 15.4 15.1 88 1.1 SW 17 22 9 12 1011.4 1011.2 0.0
17/01:17am 17.1 15.5 15.0 87 1.2 SW 17 22 9 12 1011.5 1011.3 0.0
17/01:00am 17.1 15.9 15.0 87 1.2 SW 15 20 8 11 1011.5 1011.3 0.0
17/12:30am 16.9 14.9 15.0 88 1.1 SW 19 24 10 13 1011.7 1011.5 0.0
17/12:27am 16.9 14.9 15.0 88 1.1 SW 19 24 10 13 1011.8 1011.6 0.0
17/12:00am 16.7 14.7 15.0 90 1.0 SW 19 24 10 13 1011.8 1011.6 0.0
 
Date/Time
CDT
Temp
°C
App
Temp
°C
Dew
Point
°C
Rel
Hum
%
Delta-T
°C
Wind Press
QNH
hPa
Press
MSL
hPa
Rain since
9am
mm
Dir  Spd
km/h
Gust
km/h
Spd
kts
Gust
kts
16/11:42pm 16.8 14.8 14.9 88 1.1 SW 19 26 10 14 1011.9 1011.7 0.0
16/11:30pm 16.8 14.6 14.9 88 1.1 SW 20 28 11 15 1011.8 1011.6 0.0
16/11:00pm 16.8 14.1 14.7 87 1.2 SW 22 28 12 15 1011.8 1011.6 0.0
16/10:30pm 16.8 13.3 14.5 86 1.3 SW 26 33 14 18 1011.6 1011.4 0.0
16/10:00pm 17.0 13.9 14.6 86 1.4 SW 24 32 13 17 1011.5 1011.3 0.0
16/09:30pm 17.6 14.2 14.7 83 1.7 SSW 26 32 14 17 1011.0 1010.9 0.0
16/09:17pm 17.6 14.6 14.8 84 1.6 SSW 24 32 13 17 1010.9 1010.8 0.0
16/09:00pm 17.8 14.5 15.1 84 1.6 SW 26 32 14 17 1010.9 1010.8 0.0
16/08:41pm 17.8 14.6 15.2 85 1.5 SSW 26 33 14 18 1010.8 1010.7 0.0
16/08:30pm 18.0 14.8 15.3 84 1.6 SSW 26 33 14 18 1010.7 1010.6 0.0
16/08:00pm 18.9 15.7 15.3 79 2.1 SSW 26 33 14 18 1010.3 1010.2 0.0
16/07:30pm 19.8 16.2 15.2 75 2.7 SSW 28 32 15 17 1009.9 1009.8 0.0
16/07:00pm 20.7 17.4 15.1 70 3.3 SSW 26 33 14 18 1009.3 1009.2 0.0
16/06:30pm 21.7 17.9 14.8 65 4.1 SSW 28 35 15 19 1008.6 1008.5 0.0
16/06:00pm 22.3 17.7 14.7 62 4.5 SW 32 39 17 21 1008.3 1008.2 0.0
16/05:30pm 21.8 18.9 16.0 69 3.5 SW 26 35 14 19 1008.0 1007.9 0.0
16/05:00pm 22.7 19.4 16.1 66 4.0 WSW 28 35 15 19 1007.9 1007.8 0.0
16/04:30pm 22.8 19.7 15.7 64 4.3 SW 26 37 14 20 1007.8 1007.7 0.0
16/04:00pm 22.4 18.4 16.1 67 3.8 SW 32 39 17 21 1007.7 1007.6 0.0
16/03:30pm 21.9 17.9 16.3 70 3.4 SSW 32 41 17 22 1007.8 1007.7 0.0
16/03:00pm 21.4 18.2 17.2 77 2.6 SSW 30 39 16 21 1007.7 1007.6 0.0
16/02:30pm 21.4 18.6 17.2 77 2.6 SSW 28 35 15 19 1007.7 1007.6 0.0
16/02:13pm 22.8 20.7 17.1 70 3.5 SW 24 35 13 19 1007.7 1007.6 0.0
16/02:00pm 20.6 18.6 18.2 86 1.5 SW 26 33 14 18 1007.8 1007.7 0.0
16/01:54pm 21.0 18.5 18.1 83 1.8 SW 28 35 15 19 1007.9 1007.8 0.0
16/01:30pm 23.0 19.8 16.3 66 4.1 SW 28 35 15 19 1007.7 1007.6 0.0
16/01:00pm 21.6 18.9 16.5 73 3.1 WSW 26 35 14 19 1007.9 1007.8 0.0
16/12:30pm 23.2 20.3 15.0 60 4.9 SW 24 33 13 18 1007.7 1007.6 0.0
16/12:00pm 22.7 20.5 15.0 61 4.6 WSW 20 32 11 17 1007.6 1007.5 0.0
16/11:30am 22.8 19.4 14.7 60 4.8 SW 26 43 14 23 1007.4 1007.3 0.0
16/11:00am 22.1 19.5 15.0 64 4.2 WSW 22 32 12 17 1007.3 1007.2 0.0
16/10:30am 21.5 18.5 14.9 66 3.9 SW 24 33 13 18 1007.4 1007.3 0.0
16/10:00am 20.8 18.3 15.1 70 3.4 SW 22 28 12 15 1007.3 1007.2 0.0
16/09:30am 19.7 16.7 14.8 73 2.9 SW 24 30 13 16 1007.3 1007.2 0.0
16/09:00am 19.6 17.2 15.4 77 2.5 SW 22 28 12 15 1007.1 1007.0 0.0
16/08:36am 19.1 16.5 15.0 77 2.4 WSW 22 30 12 16 1006.9 1006.8 0.0
16/08:30am 19.1 16.6 15.2 78 2.3 WSW 22 33 12 18 1006.9 1006.8 0.0
16/08:00am 18.9 16.5 15.5 80 2.0 WSW 22 30 12 16 1006.5 1006.4 0.0
16/07:47am 18.8 17.3 16.3 85 1.5 SW 19 28 10 15 1006.5 1006.4 0.0
16/07:30am 18.1 16.8 15.9 87 1.3 SW 17 20 9 11 1006.5 1006.4 0.0
16/07:00am 17.9 16.9 15.7 87 1.3 W 15 19 8 10 1006.2 1006.1 0.0
16/06:52am 18.0 17.3 15.5 85 1.5 WSW 13 19 7 10 1006.2 1006.1 0.0
16/06:30am 18.0 16.5 15.3 84 1.6 WSW 17 20 9 11 1005.9 1005.8 0.0
16/06:00am 18.1 17.0 15.4 84 1.6 WSW 15 20 8 11 1005.6 1005.5 0.0
16/05:30am 18.0 17.0 15.5 85 1.5 WSW 15 20 8 11 1005.2 1005.1 0.0
16/05:00am 17.9 17.6 15.5 86 1.4 W 11 13 6 7 1004.8 1004.7 0.0
16/04:30am 17.8 16.7 15.4 86 1.4 WSW 15 20 8 11 1004.6 1004.5 0.0
16/04:00am 17.6 18.5 16.1 91 0.9 WNW 6 7 3 4 1004.4 1004.3 0.0
16/03:30am 17.6 19.6 15.9 90 1.0 CALM 0 0 0 0 1004.2 1004.1 0.0
16/03:00am 17.4 18.9 15.7 90 1.0 WNW 2 6 1 3 1004.1 1004.0 0.0
16/02:30am 17.4 18.0 15.9 91 0.9 WNW 7 9 4 5 1004.3 1004.2 0.0
16/02:03am 17.4 17.7 16.1 92 0.8 WSW 9 11 5 6 1004.6 1004.5 0.0
16/02:00am 17.5 17.7 15.8 90 1.0 WSW 9 11 5 6 1004.7 1004.6 0.0
16/01:49am 17.7 17.5 15.7 88 1.2 SW 11 13 6 7 1004.8 1004.7 0.0
16/01:30am 17.9 18.0 15.5 86 1.4 SW 9 13 5 7 1004.9 1004.8 0.0
16/01:00am 17.8 17.9 15.4 86 1.4 SW 9 11 5 6 1004.9 1004.8 0.0
16/12:30am 17.8 18.3 15.6 87 1.3 SSW 7 9 4 5 1005.0 1004.9 0.0
16/12:00am 17.6 17.7 15.6 88 1.2 SSW 9 13 5 7 1005.1 1005.0 0.0
 
Date/Time
CDT
Temp
°C
App
Temp
°C
Dew
Point
°C
Rel
Hum
%
Delta-T
°C
Wind Press
QNH
hPa
Press
MSL
hPa
Rain since
9am
mm
Dir  Spd
km/h
Gust
km/h
Spd
kts
Gust
kts
15/11:30pm 17.3 17.9 15.4 88 1.1 SSW 6 9 3 5 1005.0 1004.9 0.0
15/11:00pm 17.1 17.1 15.2 88 1.1 SW 9 11 5 6 1005.0 1004.9 0.0
15/10:35pm 17.3 16.2 15.3 88 1.2 SW 15 17 8 9 1004.7 1004.6 0.0
15/10:30pm 17.4 16.3 15.2 87 1.3 SW 15 19 8 10 1004.7 1004.6 0.0
15/10:00pm 17.8 15.7 15.2 85 1.5 SW 20 24 11 13 1004.6 1004.5 0.0
15/09:30pm 17.7 15.6 15.3 86 1.4 SSW 20 24 11 13 1004.3 1004.2 0.0
15/09:08pm 18.0 16.1 15.1 83 1.7 SSW 19 28 10 15 1004.2 1004.1 0.0
15/09:00pm 18.1 16.0 15.2 83 1.7 SSW 20 26 11 14 1004.3 1004.2 0.0
15/08:30pm 18.8 15.2 15.2 79 2.1 SSW 28 39 15 21 1004.2 1004.1 0.0
15/08:00pm 20.7 17.8 15.1 70 3.3 SSW 24 32 13 17 1004.1 1004.0 0.0
15/07:30pm 21.8 18.7 14.5 63 4.3 SSW 24 30 13 16 1003.8 1003.7 0.0
15/07:00pm 22.4 18.9 14.6 61 4.6 SSW 26 33 14 18 1003.3 1003.2 0.0
15/06:30pm 22.7 19.2 15.4 63 4.4 SSW 28 35 15 19 1003.0 1002.9 0.0
15/06:00pm 23.8 20.7 15.5 59 5.0 SSW 26 37 14 20 1002.5 1002.4 0.0
15/05:30pm 24.2 20.4 13.5 51 6.3 SW 26 39 14 21 1002.2 1002.1 0.0
15/05:00pm 24.6 19.5 12.0 45 7.2 WSW 30 41 16 22 1002.3 1002.2 0.0
15/04:30pm 24.8 20.5 14.4 52 6.2 SW 30 39 16 21 1002.3 1002.2 0.0
15/04:00pm 24.8 21.3 14.6 53 6.1 SSW 26 37 14 20 1002.5 1002.4 0.0
15/03:30pm 26.0 22.8 6.9 29 10.1 SW 13 20 7 11 1002.7 1002.6 0.0
15/03:00pm 26.0 23.8 8.0 32 9.7 SSW 9 17 5 9 1003.1 1003.0 0.0
15/02:30pm 26.4 24.2 7.8 30 10.0 NNE 9 13 5 7 1003.6 1003.5 0.0
15/02:00pm 25.7 23.4 7.5 31 9.7 WNW 9 19 5 10 1004.1 1004.0 0.0
15/01:30pm 25.5 23.3 8.0 33 9.4 S 9 11 5 6 1004.6 1004.5 0.0
15/01:00pm 23.9 21.3 7.6 35 8.6 S 11 15 6 8 1004.9 1004.8 0.0
15/12:30pm 23.8 21.1 7.5 35 8.6 E 11 15 6 8 1005.0 1004.9 0.0
15/12:00pm 24.0 22.1 9.1 38 8.1 ENE 9 15 5 8 1005.4 1005.3 0.0
15/11:30am 23.0 21.5 10.5 45 6.9 E 9 15 5 8 1005.3 1005.2 0.0
15/11:00am 22.2 21.5 11.9 52 5.8 ENE 7 15 4 8 1005.7 1005.6 0.0
15/10:30am 21.9 21.5 14.0 61 4.6 SSW 9 13 5 7 1006.0 1005.9 0.0
15/10:00am 20.5 20.0 13.8 65 3.9 S 9 11 5 6 1006.2 1006.1 0.0
15/09:30am 19.8 19.3 13.7 68 3.5 WSW 9 13 5 7 1006.3 1006.2 0.0
15/09:11am 19.3 19.2 14.9 75 2.6 SSW 9 19 5 10 1006.3 1006.2 0.0
15/09:00am 18.7 18.5 14.8 78 2.3 SW 9 15 5 8 1006.4 1006.3 1.6
15/08:30am 18.2 17.5 15.5 84 1.6 SW 13 15 7 8 1006.3 1006.2 1.6
15/08:17am 17.7 16.9 15.1 85 1.5 SW 13 15 7 8 1006.2 1006.1 1.6
15/08:00am 17.3 16.2 15.3 88 1.2 SSW 15 20 8 11 1006.0 1005.9 1.6
15/07:56am 17.4 16.0 15.5 89 1.1 SSW 17 20 9 11 1005.9 1005.8 1.6
15/07:30am 16.7 15.7 15.5 93 0.7 SW 15 20 8 11 1005.6 1005.5 1.6
15/07:16am 16.4 15.3 15.4 94 0.6 SW 15 19 8 10 1005.5 1005.4 1.6
15/07:00am 16.2 15.1 15.3 94 0.5 SW 15 22 8 12 1005.5 1005.4 1.6
15/06:30am 15.6 15.9 14.9 96 0.4 SW 7 11 4 6 1005.2 1005.1 1.6
15/06:12am 15.4 14.8 14.7 96 0.4 WSW 11 15 6 8 1005.1 1005.0 1.6
15/06:00am 15.4 14.1 14.7 96 0.4 WSW 15 20 8 11 1005.2 1005.1 1.6
15/05:30am 15.5 13.3 14.8 96 0.4 WSW 20 24 11 13 1005.1 1005.0 1.6
15/05:20am 15.3 13.0 14.6 96 0.4 SW 20 24 11 13 1004.8 1004.7 1.6
15/05:00am 14.8 14.3 13.9 94 0.5 SSW 9 11 5 6 1004.9 1004.8 1.6
15/04:30am 15.4 14.7 14.3 93 0.6 SW 11 17 6 9 1004.7 1004.6 1.6
15/04:00am 15.9 14.9 14.7 93 0.7 SW 13 15 7 8 1004.7 1004.6 1.6
15/03:30am 16.0 13.8 14.8 93 0.7 WSW 20 24 11 13 1004.5 1004.4 1.6
15/03:00am 16.2 14.5 14.8 91 0.8 WSW 17 20 9 11 1005.2 1005.1 1.6
15/02:30am 16.2 14.1 14.6 90 0.9 WSW 19 22 10 12 1005.4 1005.3 1.6
15/02:00am 16.1 13.7 14.5 90 0.9 WSW 20 26 11 14 1005.3 1005.2 1.6
15/01:30am 16.1 13.8 14.7 91 0.8 WSW 20 28 11 15 1005.6 1005.5 1.6
15/01:00am 16.1 13.9 14.5 90 0.9 SW 19 24 10 13 1005.8 1005.7 1.6
15/12:30am 16.1 13.7 14.5 90 0.9 WSW 20 26 11 14 1005.7 1005.6 1.6
15/12:14am 16.0 13.3 14.6 91 0.8 SW 22 28 12 15 1006.1 1006.0 1.6
15/12:00am 16.2 13.9 14.6 90 0.9 SW 20 26 11 14 1006.5 1006.4 1.6

Other Formats:

Comma delimited format used in spreadsheet applications
http://www.bom.gov.au/fwo/IDS60801/IDS60801.95818.axf

JavaScript Object Notation format (JSON) in row-major order
http://www.bom.gov.au/fwo/IDS60801/IDS60801.95818.json